createdAt,value
2018-02-04T00:01:43.400Z,99518.49
2018-02-04T00:04:10.878Z,99519.55
2018-02-04T00:06:38.330Z,99525.34
2018-02-04T00:09:05.798Z,99527.59
2018-02-04T00:11:33.271Z,99520.23
2018-02-04T00:14:00.885Z,99524.58
2018-02-04T00:16:28.339Z,99524.84
2018-02-04T00:18:55.820Z,99527.75
2018-02-04T00:21:23.289Z,99533.58
2018-02-04T00:23:50.746Z,99534.92
2018-02-04T00:26:18.219Z,99537.48
2018-02-04T00:28:45.730Z,99535.35
2018-02-04T00:31:13.185Z,99538.82
2018-02-04T00:33:40.642Z,99540.11
2018-02-04T00:36:08.115Z,99539.53
2018-02-04T00:38:35.573Z,99544.95
2018-02-04T00:41:05.917Z,99542.97
2018-02-04T00:43:33.379Z,99546.99
2018-02-04T00:46:00.860Z,99554.87
2018-02-04T00:48:28.323Z,99551.91
2018-02-04T00:50:55.803Z,99553.53
2018-02-04T00:53:23.273Z,99558.33
2018-02-04T00:55:50.755Z,99560.14
2018-02-04T00:58:18.215Z,99568.23
2018-02-04T01:00:45.702Z,99566.92
2018-02-04T01:03:13.159Z,99573.09
2018-02-04T01:05:40.626Z,99569.19
2018-02-04T01:08:08.089Z,99570.77
2018-02-04T01:10:35.571Z,99573.08
2018-02-04T01:13:03.023Z,99584.39
2018-02-04T01:15:30.506Z,99582.33
2018-02-04T01:17:57.967Z,99584.63
2018-02-04T01:20:25.443Z,99590.78
2018-02-04T01:22:52.907Z,99589.66
2018-02-04T01:25:20.380Z,99586.25
2018-02-04T01:27:47.835Z,99594.09
2018-02-04T01:30:15.311Z,99598.63
2018-02-04T01:32:42.767Z,99592.85
2018-02-04T01:35:10.242Z,99599.22
2018-02-04T01:37:37.699Z,99600.25
2018-02-04T01:40:05.181Z,99605.88
2018-02-04T01:42:32.643Z,99614.92
2018-02-04T01:45:00.127Z,99608.96
2018-02-04T01:47:27.574Z,99615.43
2018-02-04T01:49:55.039Z,99619.72
2018-02-04T01:52:22.510Z,99619.48
2018-02-04T01:54:49.976Z,99627.61
2018-02-04T01:57:17.446Z,99622.07
2018-02-04T01:59:44.902Z,99621.55
2018-02-04T02:02:12.387Z,99624.88
2018-02-04T02:04:39.843Z,99625.80
2018-02-04T02:07:07.319Z,99626.17
2018-02-04T02:09:34.774Z,99625.53
2018-02-04T02:12:02.251Z,99622.67
2018-02-04T02:14:29.712Z,99636.06
2018-02-04T02:16:57.198Z,99629.78
2018-02-04T02:19:24.658Z,99643.31
2018-02-04T02:21:52.162Z,99652.30
2018-02-04T02:24:19.618Z,99654.73
2018-02-04T02:26:47.100Z,99654.33
2018-02-04T02:29:14.567Z,99653.53
2018-02-04T02:31:42.052Z,99664.65
2018-02-04T02:34:09.510Z,99662.70
2018-02-04T02:36:36.992Z,99666.88
2018-02-04T02:39:04.454Z,99673.37
2018-02-04T02:41:31.940Z,99672.98
2018-02-04T02:43:59.401Z,99681.35
2018-02-04T02:46:26.883Z,99677.97
2018-02-04T02:48:54.340Z,99683.61
2018-02-04T02:51:21.814Z,99693.59
2018-02-04T02:53:49.274Z,99695.13
2018-02-04T02:56:16.755Z,99699.47
2018-02-04T02:58:44.272Z,99697.61
2018-02-04T03:01:11.762Z,99707.59
2018-02-04T03:03:39.214Z,99707.00
2018-02-04T03:06:06.688Z,99709.14
2018-02-04T03:08:34.151Z,99712.86
2018-02-04T03:11:01.607Z,99713.08
2018-02-04T03:13:29.088Z,99724.80
2018-02-04T03:15:56.560Z,99727.78
2018-02-04T03:18:24.042Z,99731.41
2018-02-04T03:20:51.555Z,99732.09
2018-02-04T03:23:19.035Z,99737.34
2018-02-04T03:25:46.494Z,99737.88
2018-02-04T03:28:13.980Z,99744.17
2018-02-04T03:30:41.446Z,99749.41
2018-02-04T03:33:08.927Z,99762.77
2018-02-04T03:38:10.251Z,99784.96
2018-02-04T03:40:37.706Z,99788.55
2018-02-04T03:43:05.183Z,99795.45
2018-02-04T03:45:32.643Z,99794.13
2018-02-04T03:48:00.133Z,99801.31
2018-02-04T03:50:27.587Z,99800.91
2018-02-04T03:52:55.059Z,99809.55
2018-02-04T03:55:22.529Z,99816.12
2018-02-04T03:57:50.038Z,99816.73
2018-02-04T04:00:17.514Z,99830.41
2018-02-04T04:02:44.982Z,99830.82
2018-02-04T04:05:12.461Z,99830.09
2018-02-04T04:07:39.939Z,99830.59
2018-02-04T04:10:07.397Z,99834.92
2018-02-04T04:12:34.876Z,99840.35
2018-02-04T04:15:02.351Z,99839.83
2018-02-04T04:17:29.847Z,99853.92
2018-02-04T04:19:57.315Z,99845.27
2018-02-04T04:22:24.786Z,99856.48
2018-02-04T04:24:52.255Z,99863.06
2018-02-04T04:27:19.725Z,99863.95
2018-02-04T04:29:47.187Z,99872.72
2018-02-04T04:32:14.659Z,99876.66
2018-02-04T04:34:42.127Z,99878.83
2018-02-04T04:37:09.602Z,99888.98
2018-02-04T04:39:37.078Z,99902.08
2018-02-04T04:42:04.537Z,99902.01
2018-02-04T04:44:32.014Z,99915.75
2018-02-04T04:46:59.479Z,99916.55
2018-02-04T04:49:26.959Z,99920.64
2018-02-04T04:51:54.418Z,99925.45
2018-02-04T04:54:21.890Z,99931.17
2018-02-04T04:56:49.393Z,99930.50
2018-02-04T04:59:16.875Z,99930.31
2018-02-04T05:01:44.343Z,99935.73
2018-02-04T05:04:11.822Z,99940.10
2018-02-04T05:06:39.292Z,99946.48
2018-02-04T05:09:06.770Z,99940.61
2018-02-04T05:11:34.231Z,99948.83
2018-02-04T05:14:01.708Z,99950.28
2018-02-04T05:16:29.166Z,99959.55
2018-02-04T05:18:56.667Z,99959.39
2018-02-04T05:21:24.120Z,99965.09
2018-02-04T05:23:51.596Z,99967.48
2018-02-04T05:26:19.054Z,99982.61
2018-02-04T05:28:46.531Z,99986.58
2018-02-04T05:31:13.987Z,99993.17
2018-02-04T05:33:41.462Z,99996.19
2018-02-04T05:36:08.923Z,100004.33
2018-02-04T05:38:36.405Z,100013.27
2018-02-04T05:41:03.867Z,100014.22
2018-02-04T05:43:31.351Z,100025.73
2018-02-04T05:45:58.823Z,100018.43
2018-02-04T05:48:26.301Z,100030.59
2018-02-04T05:50:53.779Z,100029.02
2018-02-04T05:53:21.267Z,100034.39
2018-02-04T05:55:48.735Z,100037.16
2018-02-04T05:58:16.214Z,100036.50
2018-02-04T06:00:43.676Z,100047.02
2018-02-04T06:03:11.151Z,100054.94
2018-02-04T06:05:38.617Z,100058.83
2018-02-04T06:08:06.074Z,100058.62
2018-02-04T06:10:33.552Z,100068.04
2018-02-04T06:13:01.022Z,100076.00
2018-02-04T06:15:28.531Z,100074.37
2018-02-04T06:17:55.997Z,100077.66
2018-02-04T06:20:23.487Z,100084.77
2018-02-04T06:22:50.953Z,100093.88
2018-02-04T06:25:18.441Z,100099.79
2018-02-04T06:27:45.902Z,100112.23
2018-02-04T06:30:13.383Z,100114.54
2018-02-04T06:32:40.847Z,100121.42
2018-02-04T06:35:08.330Z,100122.73
2018-02-04T06:37:35.798Z,100121.27
2018-02-04T06:40:03.283Z,100129.84
2018-02-04T06:42:30.743Z,100129.27
2018-02-04T06:44:58.227Z,100138.96
2018-02-04T06:47:25.688Z,100139.80
2018-02-04T06:49:53.184Z,100144.22
2018-02-04T06:52:20.639Z,100147.72
2018-02-04T06:54:48.110Z,100154.61
2018-02-04T06:57:15.562Z,100157.55
2018-02-04T06:59:43.047Z,100162.11
2018-02-04T07:02:10.503Z,100167.11
2018-02-04T07:04:37.982Z,100183.86
2018-02-04T07:07:05.434Z,100189.14
2018-02-04T07:09:32.916Z,100190.06
2018-02-04T07:12:00.372Z,100196.00
2018-02-04T07:14:27.844Z,100203.51
2018-02-04T07:16:55.302Z,100203.45
2018-02-04T07:19:22.772Z,100212.23
2018-02-04T07:21:50.231Z,100217.89
2018-02-04T07:24:17.699Z,100221.56
2018-02-04T07:26:45.155Z,100225.42
2018-02-04T07:29:12.630Z,100217.53
2018-02-04T07:31:40.097Z,100232.78
2018-02-04T07:34:07.558Z,100234.03
2018-02-04T07:36:35.026Z,100229.17
2018-02-04T07:39:02.475Z,100231.26
2018-02-04T07:41:29.951Z,100235.65
2018-02-04T07:43:57.412Z,100235.67
2018-02-04T07:46:24.885Z,100238.03
2018-02-04T07:48:52.330Z,100241.61
2018-02-04T07:51:19.805Z,100245.06
2018-02-04T07:53:47.258Z,100248.50
2018-02-04T07:56:14.726Z,100254.06
2018-02-04T07:58:42.217Z,100258.91
2018-02-04T08:01:09.705Z,100254.66
2018-02-04T08:03:37.167Z,100253.87
2018-02-04T08:06:04.651Z,100261.80
2018-02-04T08:08:32.107Z,100261.24
2018-02-04T08:10:59.578Z,100267.50
2018-02-04T08:13:27.037Z,100273.11
2018-02-04T08:15:54.579Z,100270.02
2018-02-04T08:18:22.027Z,100274.86
2018-02-04T08:20:49.498Z,100284.66
2018-02-04T08:23:16.955Z,100289.98
2018-02-04T08:25:44.426Z,100287.53
2018-02-04T08:28:11.887Z,100295.78
2018-02-04T08:30:39.360Z,100293.86
2018-02-04T08:33:06.815Z,100294.58
2018-02-04T08:35:34.312Z,100299.58
2018-02-04T08:38:01.759Z,100306.34
2018-02-04T08:40:29.239Z,100302.27
2018-02-04T08:42:56.763Z,100308.55
2018-02-04T08:45:24.239Z,100312.11
2018-02-04T08:47:51.686Z,100322.13
2018-02-04T08:50:19.164Z,100322.16
2018-02-04T08:52:46.618Z,100319.58
2018-02-04T08:55:14.102Z,100332.13
2018-02-04T08:57:41.563Z,100337.09
2018-02-04T09:00:09.019Z,100338.98
2018-02-04T09:02:36.502Z,100333.04
2018-02-04T09:05:03.955Z,100336.85
2018-02-04T09:07:31.443Z,100342.72
2018-02-04T09:09:58.901Z,100339.75
2018-02-04T09:12:26.370Z,100345.80
2018-02-04T09:14:53.828Z,100345.59
2018-02-04T09:17:22.214Z,100342.00
2018-02-04T09:19:49.667Z,100348.19
2018-02-04T09:22:17.146Z,100351.14
2018-02-04T09:24:44.611Z,100347.91
2018-02-04T09:27:12.098Z,100345.47
2018-02-04T09:29:39.555Z,100349.40
2018-02-04T09:32:07.027Z,100351.23
2018-02-04T09:34:34.490Z,100350.72
2018-02-04T09:37:01.967Z,100357.62
2018-02-04T09:39:29.562Z,100355.21
2018-02-04T09:41:57.043Z,100364.14
2018-02-04T09:44:24.506Z,100360.42
2018-02-04T09:46:52.026Z,100358.67
2018-02-04T09:49:19.524Z,100363.48
2018-02-04T09:51:46.999Z,100364.86
2018-02-04T09:54:14.455Z,100368.78
2018-02-04T09:56:41.934Z,100366.25
2018-02-04T09:59:09.410Z,100373.21
2018-02-04T10:01:36.888Z,100367.44
2018-02-04T10:04:04.366Z,100378.87
2018-02-04T10:06:31.834Z,100379.89
2018-02-04T10:08:59.364Z,100393.95
2018-02-04T10:11:26.835Z,100395.22
2018-02-04T10:13:54.301Z,100398.75
2018-02-04T10:16:21.766Z,100402.53
2018-02-04T10:18:49.227Z,100410.13
2018-02-04T10:21:16.714Z,100401.40
2018-02-04T10:23:44.167Z,100410.93
2018-02-04T10:26:11.628Z,100412.81
2018-02-04T10:28:39.108Z,100406.98
2018-02-04T10:31:06.566Z,100416.45
2018-02-04T10:36:07.819Z,100422.20
2018-02-04T10:38:35.304Z,100421.45
2018-02-04T10:41:02.899Z,100426.58
2018-02-04T10:43:30.375Z,100422.38
2018-02-04T10:45:57.828Z,100427.94
2018-02-04T10:48:25.299Z,100423.62
2018-02-04T10:50:58.441Z,100428.06
2018-02-04T10:53:25.911Z,100435.44
2018-02-04T10:55:53.471Z,100434.45
2018-02-04T10:58:20.944Z,100433.84
2018-02-04T11:00:48.411Z,100433.42
2018-02-04T11:03:15.886Z,100432.44
2018-02-04T11:05:43.347Z,100440.59
2018-02-04T11:08:10.827Z,100439.55
2018-02-04T11:10:38.283Z,100441.42
2018-02-04T11:13:05.766Z,100438.96
2018-02-04T11:15:33.222Z,100442.34
2018-02-04T11:18:00.708Z,100450.45
2018-02-04T11:20:28.182Z,100444.92
2018-02-04T11:22:55.655Z,100445.38
2018-02-04T11:25:23.116Z,100450.32
2018-02-04T11:27:50.636Z,100444.23
2018-02-04T11:30:18.095Z,100444.77
2018-02-04T11:32:45.579Z,100447.48
2018-02-04T11:35:13.036Z,100456.96
2018-02-04T11:37:40.505Z,100450.92
2018-02-04T11:40:07.972Z,100457.73
2018-02-04T11:42:35.547Z,100462.44
2018-02-04T11:45:03.043Z,100452.73
2018-02-04T11:47:30.507Z,100464.82
2018-02-04T11:49:57.987Z,100469.92
2018-02-04T11:52:25.454Z,100466.43
2018-02-04T11:54:52.927Z,100467.31
2018-02-04T11:57:20.387Z,100467.16
2018-02-04T11:59:47.862Z,100473.00
2018-02-04T12:02:15.321Z,100470.34
2018-02-04T12:04:42.803Z,100469.56
2018-02-04T12:07:10.270Z,100473.29
2018-02-04T12:09:37.759Z,100475.56
2018-02-04T12:12:05.225Z,100477.37
2018-02-04T12:14:32.708Z,100475.28
2018-02-04T12:17:00.174Z,100474.91
2018-02-04T12:19:28.183Z,100476.47
2018-02-04T12:21:55.638Z,100481.28
2018-02-04T12:24:23.116Z,100484.94
2018-02-04T12:26:50.576Z,100478.66
2018-02-04T12:29:18.064Z,100483.38
2018-02-04T12:31:45.527Z,100485.73
2018-02-04T12:34:13.010Z,100493.33
2018-02-04T12:36:40.473Z,100494.55
2018-02-04T12:39:08.043Z,100493.70
2018-02-04T12:41:35.518Z,100499.41
2018-02-04T12:44:03.008Z,100501.40
2018-02-04T12:46:30.471Z,100504.84
2018-02-04T12:48:57.952Z,100505.13
2018-02-04T12:51:25.423Z,100504.97
2018-02-04T12:53:52.901Z,100499.47
2018-02-04T12:56:20.403Z,100505.08
2018-02-04T12:58:47.965Z,100506.92
2018-02-04T13:01:15.605Z,100510.57
2018-02-04T13:03:43.096Z,100505.72
2018-02-04T13:06:10.567Z,100503.53
2018-02-04T13:08:38.043Z,100512.45
2018-02-04T13:11:05.530Z,100514.47
2018-02-04T13:13:33.021Z,100517.48
2018-02-04T13:16:00.508Z,100521.09
2018-02-04T13:18:27.979Z,100519.73
2018-02-04T13:20:55.470Z,100516.00
2018-02-04T13:23:22.959Z,100512.71
2018-02-04T13:25:50.453Z,100519.58
2018-02-04T13:28:17.920Z,100523.11
2018-02-04T13:30:45.402Z,100521.95
2018-02-04T13:33:12.863Z,100530.30
2018-02-04T13:35:40.346Z,100527.84
2018-02-04T13:38:07.803Z,100529.43
2018-02-04T13:40:35.295Z,100524.09
2018-02-04T13:43:02.763Z,100525.77
2018-02-04T13:45:30.248Z,100539.83
2018-02-04T13:47:57.711Z,100537.95
2018-02-04T13:50:25.182Z,100542.67
2018-02-04T13:52:52.644Z,100549.80
2018-02-04T13:55:20.123Z,100550.62
2018-02-04T13:57:47.575Z,100555.92
2018-02-04T14:00:15.047Z,100559.73
2018-02-04T14:02:42.494Z,100558.11
2018-02-04T14:05:09.977Z,100559.50
2018-02-04T14:07:37.435Z,100560.14
2018-02-04T14:10:04.906Z,100563.48
2018-02-04T14:12:32.376Z,100565.33
2018-02-04T14:14:59.851Z,100567.36
2018-02-04T14:17:27.311Z,100563.99
2018-02-04T14:19:54.791Z,100570.38
2018-02-04T14:22:22.268Z,100567.38
2018-02-04T14:24:49.747Z,100567.13
2018-02-04T14:27:17.200Z,100572.94
2018-02-04T14:29:45.526Z,100567.88
2018-02-04T14:32:12.985Z,100574.30
2018-02-04T14:34:40.448Z,100569.23
2018-02-04T14:37:07.919Z,100574.52
2018-02-04T14:39:35.382Z,100573.53
2018-02-04T14:42:02.879Z,100579.85
2018-02-04T14:44:30.339Z,100575.91
2018-02-04T14:46:57.815Z,100573.85
2018-02-04T14:49:25.266Z,100584.69
2018-02-04T14:51:52.840Z,100582.77
2018-02-04T14:54:20.305Z,100583.51
2018-02-04T14:56:47.786Z,100585.64
2018-02-04T14:59:15.240Z,100579.92
2018-02-04T15:01:42.734Z,100588.43
2018-02-04T15:04:10.198Z,100590.67
2018-02-04T15:06:37.691Z,100596.00
2018-02-04T15:09:05.155Z,100591.96
2018-02-04T15:11:33.099Z,100592.94
2018-02-04T15:14:00.610Z,100601.27
2018-02-04T15:16:28.063Z,100603.27
2018-02-04T15:18:55.519Z,100599.34
2018-02-04T15:21:23.086Z,100608.69
2018-02-04T15:23:50.538Z,100607.44
2018-02-04T15:26:18.014Z,100607.59
2018-02-04T15:28:45.471Z,100614.06
2018-02-04T15:31:12.942Z,100610.56
2018-02-04T15:33:40.390Z,100613.47
2018-02-04T15:36:07.882Z,100616.96
2018-02-04T15:38:35.633Z,100632.00
2018-02-04T15:41:03.412Z,100632.22
2018-02-04T15:43:30.902Z,100630.49
2018-02-04T15:45:58.393Z,100637.31
2018-02-04T15:48:25.928Z,100639.58
2018-02-04T15:50:53.351Z,100646.66
2018-02-04T15:53:20.843Z,100650.53
2018-02-04T15:55:48.319Z,100655.75
2018-02-04T15:58:15.775Z,100655.59
2018-02-04T16:00:43.254Z,100658.95
2018-02-04T16:03:10.736Z,100663.55
2018-02-04T16:05:38.252Z,100668.17
2018-02-04T16:08:05.750Z,100670.28
2018-02-04T16:10:33.207Z,100669.78
2018-02-04T16:13:00.690Z,100674.35
2018-02-04T16:15:28.163Z,100685.82
2018-02-04T16:17:55.646Z,100679.70
2018-02-04T16:20:23.139Z,100686.66
2018-02-04T16:22:50.635Z,100694.83
2018-02-04T16:25:18.167Z,100690.23
2018-02-04T16:27:45.652Z,100688.23
2018-02-04T16:30:13.114Z,100689.56
2018-02-04T16:32:40.586Z,100698.21
2018-02-04T16:35:08.046Z,100698.66
2018-02-04T16:37:35.531Z,100695.96
2018-02-04T16:40:03.024Z,100696.23
2018-02-04T16:42:30.514Z,100694.66
2018-02-04T16:44:58.228Z,100705.46
2018-02-04T16:47:25.711Z,100707.48
2018-02-04T16:49:53.170Z,100702.90
2018-02-04T16:52:20.679Z,100704.64
2018-02-04T16:54:48.159Z,100707.25
2018-02-04T16:57:15.659Z,100706.37
2018-02-04T16:59:43.247Z,100714.98
2018-02-04T17:02:10.727Z,100714.17
2018-02-04T17:04:38.190Z,100715.12
2018-02-04T17:07:05.661Z,100711.87
2018-02-04T17:09:33.110Z,100714.73
2018-02-04T17:12:00.653Z,100726.01
2018-02-04T17:14:28.136Z,100722.86
2018-02-04T17:16:55.626Z,100727.66
2018-02-04T17:19:23.129Z,100730.90
2018-02-04T17:21:50.620Z,100733.91
2018-02-04T17:24:18.120Z,100737.33
2018-02-04T17:26:45.588Z,100736.58
2018-02-04T17:29:13.062Z,100733.28
2018-02-04T17:31:40.521Z,100733.67
2018-02-04T17:34:07.997Z,100737.94
2018-02-04T17:36:35.454Z,100742.47
2018-02-04T17:39:02.938Z,100748.38
2018-02-04T17:41:30.408Z,100750.28
2018-02-04T17:43:57.886Z,100756.54
2018-02-04T17:46:25.354Z,100760.62
2018-02-04T17:48:52.838Z,100755.20
2018-02-04T17:51:20.348Z,100765.04
2018-02-04T17:53:47.826Z,100762.50
2018-02-04T17:56:15.278Z,100761.06
2018-02-04T17:58:42.766Z,100769.18
2018-02-04T18:01:10.246Z,100759.58
2018-02-04T18:03:37.725Z,100770.67
2018-02-04T18:06:05.198Z,100779.15
2018-02-04T18:08:32.767Z,100773.81
2018-02-04T18:11:00.775Z,100775.87
2018-02-04T18:13:28.270Z,100768.44
2018-02-04T18:15:55.724Z,100772.75
2018-02-04T18:18:23.195Z,100778.28
2018-02-04T18:20:50.646Z,100782.78
2018-02-04T18:23:18.140Z,100786.03
2018-02-04T18:25:45.603Z,100780.89
2018-02-04T18:28:13.080Z,100784.92
2018-02-04T18:30:40.539Z,100784.77
2018-02-04T18:33:08.012Z,100790.80
2018-02-04T18:35:35.464Z,100794.14
2018-02-04T18:38:02.943Z,100801.58
2018-02-04T18:40:38.531Z,100802.16
2018-02-04T18:43:06.013Z,100799.28
2018-02-04T18:45:33.508Z,100808.81
2018-02-04T18:48:00.987Z,100802.36
2018-02-04T18:50:28.467Z,100804.43
2018-02-04T18:52:55.954Z,100805.72
2018-02-04T18:55:23.416Z,100809.90
2018-02-04T18:57:50.879Z,100808.41
2018-02-04T19:00:18.628Z,100809.24
2018-02-04T19:02:46.091Z,100813.43
2018-02-04T19:05:13.589Z,100810.42
2018-02-04T19:07:41.050Z,100811.80
2018-02-04T19:10:09.386Z,100822.73
2018-02-04T19:12:36.854Z,100825.58
2018-02-04T19:15:04.331Z,100825.76
2018-02-04T19:17:31.808Z,100828.70
2018-02-04T19:19:59.356Z,100828.28
2018-02-04T19:22:26.843Z,100827.94
2018-02-04T19:24:54.335Z,100832.56
2018-02-04T19:27:21.794Z,100837.06
2018-02-04T19:29:49.294Z,100835.66
2018-02-04T19:32:16.751Z,100851.31
2018-02-04T19:34:44.223Z,100842.67
2018-02-04T19:37:11.703Z,100848.52
2018-02-04T19:39:39.846Z,100853.84
2018-02-04T19:42:07.307Z,100857.17
2018-02-04T19:44:35.079Z,100849.65
2018-02-04T19:47:02.539Z,100861.49
2018-02-04T19:49:30.531Z,100860.08
2018-02-04T19:51:57.986Z,100859.81
2018-02-04T19:54:25.480Z,100868.14
2018-02-04T19:56:52.947Z,100866.97
2018-02-04T19:59:20.419Z,100867.70
2018-02-04T20:01:48.816Z,100864.47
2018-02-04T20:04:16.314Z,100868.05
2018-02-04T20:06:43.776Z,100866.12
2018-02-04T20:09:11.255Z,100867.45
2018-02-04T20:11:38.741Z,100867.22
2018-02-04T20:14:06.232Z,100869.39
2018-02-04T20:16:33.771Z,100875.07
2018-02-04T20:19:01.432Z,100881.06
2018-02-04T20:21:29.135Z,100882.64
2018-02-04T20:23:56.597Z,100880.48
2018-02-04T20:26:24.138Z,100882.22
2018-02-04T20:28:51.595Z,100887.73
2018-02-04T20:31:19.083Z,100889.16
2018-02-04T20:33:58.339Z,100893.83
2018-02-04T20:36:25.826Z,100892.39
2018-02-04T20:38:53.282Z,100895.56
2018-02-04T20:41:20.760Z,100896.16
2018-02-04T20:43:48.230Z,100892.31
2018-02-04T20:46:15.747Z,100893.08
2018-02-04T20:48:43.210Z,100897.38
2018-02-04T20:51:10.806Z,100896.62
2018-02-04T20:53:38.267Z,100897.30
2018-02-04T20:56:05.755Z,100895.05
2018-02-04T20:58:35.617Z,100903.05
2018-02-04T21:01:03.231Z,100901.65
2018-02-04T21:03:30.693Z,100900.97
2018-02-04T21:05:58.171Z,100907.06
2018-02-04T21:08:25.626Z,100910.57
2018-02-04T21:10:53.120Z,100912.58
2018-02-04T21:13:20.580Z,100912.58
2018-02-04T21:15:48.074Z,100914.17
2018-02-04T21:18:15.543Z,100911.58
2018-02-04T21:20:43.026Z,100908.58
2018-02-04T21:23:10.503Z,100908.41
2018-02-04T21:25:37.998Z,100914.31
2018-02-04T21:28:05.459Z,100914.50
2018-02-04T21:30:32.939Z,100915.65
2018-02-04T21:33:00.401Z,100917.81
2018-02-04T21:35:27.874Z,100915.50
2018-02-04T21:37:55.334Z,100913.12
2018-02-04T21:40:22.826Z,100917.25
2018-02-04T21:42:50.296Z,100917.31
2018-02-04T21:45:17.801Z,100917.51
2018-02-04T21:47:45.264Z,100921.58
2018-02-04T21:50:12.720Z,100923.15
2018-02-04T21:52:40.260Z,100930.08
2018-02-04T21:55:07.757Z,100929.31
2018-02-04T21:57:35.259Z,100929.05
2018-02-04T22:00:02.727Z,100932.98
2018-02-04T22:02:30.204Z,100937.50
2018-02-04T22:04:57.675Z,100932.97
2018-02-04T22:07:25.165Z,100939.48
2018-02-04T22:09:52.626Z,100935.58
2018-02-04T22:12:20.100Z,100933.66
2018-02-04T22:14:47.563Z,100930.42
2018-02-04T22:17:15.044Z,100940.34
2018-02-04T22:19:42.523Z,100944.69
2018-02-04T22:22:10.001Z,100948.09
2018-02-04T22:24:37.457Z,100946.43
2018-02-04T22:27:04.942Z,100938.41
2018-02-04T22:29:32.406Z,100938.41
2018-02-04T22:31:59.894Z,100939.92
2018-02-04T22:34:27.353Z,100942.27
2018-02-04T22:36:54.834Z,100936.07
2018-02-04T22:39:22.294Z,100941.66
2018-02-04T22:41:49.767Z,100936.07
2018-02-04T22:44:17.226Z,100947.16
2018-02-04T22:46:44.719Z,100941.77
2018-02-04T22:49:12.174Z,100944.93
2018-02-04T22:51:39.658Z,100946.02
2018-02-04T22:54:07.136Z,100944.91
2018-02-04T22:56:34.619Z,100942.00
2018-02-04T22:59:02.085Z,100950.02
2018-02-04T23:01:29.579Z,100952.50
2018-02-04T23:03:57.052Z,100956.03
2018-02-04T23:06:24.532Z,100962.11
2018-02-04T23:08:51.994Z,100965.13
2018-02-04T23:11:19.459Z,100962.52
2018-02-04T23:13:46.939Z,100974.21
2018-02-04T23:16:14.394Z,100972.47
2018-02-04T23:18:41.898Z,100973.45
2018-02-04T23:21:09.368Z,100978.14
2018-02-04T23:23:36.851Z,100972.89
2018-02-04T23:26:04.321Z,100971.55
2018-02-04T23:28:31.812Z,100969.72
2018-02-04T23:30:59.279Z,100968.63
2018-02-04T23:33:26.758Z,100967.29
2018-02-04T23:35:54.230Z,100967.12
2018-02-04T23:38:21.714Z,100966.64
2018-02-04T23:40:49.190Z,100964.46
2018-02-04T23:43:16.670Z,100963.37
2018-02-04T23:45:44.137Z,100958.03
2018-02-04T23:48:11.627Z,100950.62
2018-02-04T23:50:39.086Z,100951.20
2018-02-04T23:53:06.569Z,100948.87
2018-02-04T23:55:34.031Z,100948.80
2018-02-04T23:58:01.515Z,100951.38
